createdAt,value
2023-10-25T00:00:33.826Z,0.60
2023-10-25T00:01:36.321Z,0.60
2023-10-25T00:02:39.713Z,0.70
2023-10-25T00:03:42.168Z,0.70
2023-10-25T00:04:44.707Z,0.60
2023-10-25T00:05:47.269Z,0.67
2023-10-25T00:06:49.673Z,0.80
2023-10-25T00:07:51.947Z,0.50
2023-10-25T00:08:54.262Z,0.60
2023-10-25T00:09:57.613Z,0.60
2023-10-25T00:11:09.634Z,0.73
2023-10-25T00:12:11.952Z,0.70
2023-10-25T00:13:14.667Z,0.50
2023-10-25T00:14:17.345Z,0.70
2023-10-25T00:15:19.894Z,0.60
2023-10-25T00:16:22.345Z,0.87
2023-10-25T00:17:24.728Z,0.50
2023-10-25T00:18:28.259Z,0.50
2023-10-25T00:19:30.937Z,0.60
2023-10-25T00:20:33.424Z,0.70
2023-10-25T00:21:35.756Z,0.80
2023-10-25T00:22:38.336Z,0.60
2023-10-25T00:23:40.754Z,0.73
2023-10-25T00:24:43.161Z,0.70
2023-10-25T00:25:45.616Z,0.50
2023-10-25T00:26:47.971Z,0.60
2023-10-25T00:27:50.385Z,0.60
2023-10-25T00:28:53.256Z,0.50
2023-10-25T00:29:55.545Z,0.53
2023-10-25T00:30:58.192Z,0.90
2023-10-25T00:32:00.958Z,0.63
2023-10-25T00:33:04.016Z,0.60
2023-10-25T00:34:06.723Z,0.67
2023-10-25T00:35:10.131Z,0.50
2023-10-25T00:36:12.539Z,0.60
2023-10-25T00:37:15.257Z,0.60
2023-10-25T00:38:17.582Z,0.70
2023-10-25T00:39:19.989Z,0.70
2023-10-25T00:40:22.640Z,0.60
2023-10-25T00:41:25.028Z,0.60
2023-10-25T00:42:27.471Z,0.80
2023-10-25T00:43:29.820Z,0.53
2023-10-25T00:44:32.356Z,0.70
2023-10-25T00:45:35.597Z,0.70
2023-10-25T00:46:38.644Z,0.57
2023-10-25T00:47:44.408Z,0.60
2023-10-25T00:48:49.198Z,0.60
2023-10-25T00:49:52.967Z,0.70
2023-10-25T00:50:55.688Z,0.63
2023-10-25T00:51:58.139Z,0.50
2023-10-25T00:53:00.527Z,0.50
2023-10-25T00:54:03.617Z,0.47
2023-10-25T00:55:06.524Z,0.50
2023-10-25T00:56:12.060Z,0.73
2023-10-25T00:57:15.725Z,0.60
2023-10-25T00:58:18.327Z,0.70
2023-10-25T00:59:22.717Z,0.50
2023-10-25T01:00:26.664Z,0.50
2023-10-25T01:01:30.298Z,0.50
2023-10-25T01:02:32.777Z,0.50
2023-10-25T01:03:35.286Z,0.70
2023-10-25T01:04:38.203Z,0.60
2023-10-25T01:05:42.249Z,0.60
2023-10-25T01:06:44.772Z,0.70
2023-10-25T01:07:47.087Z,0.70
2023-10-25T01:08:50.213Z,0.83
2023-10-25T01:09:52.694Z,0.57
2023-10-25T01:10:55.395Z,0.90
2023-10-25T01:11:58.048Z,0.50
2023-10-25T01:13:00.928Z,0.50
2023-10-25T01:14:03.343Z,0.40
2023-10-25T01:15:06.158Z,0.83
2023-10-25T01:16:08.872Z,0.60
2023-10-25T01:17:11.722Z,0.60
2023-10-25T01:18:15.611Z,0.60
2023-10-25T01:19:18.308Z,0.77
2023-10-25T01:20:20.835Z,0.50
2023-10-25T01:21:24.028Z,0.50
2023-10-25T01:22:27.081Z,0.60
2023-10-25T01:23:29.444Z,0.60
2023-10-25T01:24:32.113Z,0.47
2023-10-25T01:25:34.799Z,0.70
2023-10-25T01:26:38.754Z,0.40
2023-10-25T01:27:41.709Z,0.50
2023-10-25T01:28:44.386Z,0.73
2023-10-25T01:29:47.042Z,0.50
2023-10-25T01:30:49.592Z,0.60
2023-10-25T01:31:51.977Z,0.70
2023-10-25T01:32:55.051Z,0.67
2023-10-25T01:33:57.416Z,0.50
2023-10-25T01:35:00.256Z,0.50
2023-10-25T01:36:02.864Z,0.60
2023-10-25T01:37:05.344Z,0.70
2023-10-25T01:38:07.718Z,0.53
2023-10-25T01:39:10.065Z,0.50
2023-10-25T01:40:13.212Z,0.60
2023-10-25T01:41:17.733Z,0.50
2023-10-25T01:42:20.356Z,0.50
2023-10-25T01:43:24.234Z,0.57
2023-10-25T01:44:26.645Z,0.50
2023-10-25T01:45:29.018Z,0.50
2023-10-25T01:46:31.928Z,0.40
2023-10-25T01:47:34.434Z,0.40
2023-10-25T01:48:38.876Z,0.50
2023-10-25T01:49:41.715Z,0.70
2023-10-25T01:50:44.322Z,0.40
2023-10-25T01:51:46.687Z,0.63
2023-10-25T01:52:49.218Z,0.50
2023-10-25T01:53:51.542Z,0.47
2023-10-25T01:54:53.944Z,0.70
2023-10-25T01:55:56.672Z,0.43
2023-10-25T01:56:59.310Z,0.60
2023-10-25T01:58:01.652Z,0.30
2023-10-25T01:59:04.065Z,0.57
2023-10-25T02:00:07.915Z,0.60
2023-10-25T02:01:10.491Z,0.53
2023-10-25T02:02:14.584Z,0.63
2023-10-25T02:03:17.317Z,0.50
2023-10-25T02:04:19.697Z,0.43
2023-10-25T02:05:22.098Z,0.40
2023-10-25T02:06:24.479Z,0.70
2023-10-25T02:07:26.841Z,0.77
2023-10-25T02:08:29.496Z,0.40
2023-10-25T02:09:32.269Z,0.60
2023-10-25T02:10:37.486Z,0.50
2023-10-25T02:11:40.137Z,0.57
2023-10-25T02:12:42.450Z,0.60
2023-10-25T02:13:45.112Z,0.40
2023-10-25T02:14:47.785Z,0.40
2023-10-25T02:15:50.205Z,0.30
2023-10-25T02:16:52.690Z,0.57
2023-10-25T02:17:56.618Z,0.40
2023-10-25T02:18:59.139Z,0.60
2023-10-25T02:20:01.787Z,0.60
2023-10-25T02:21:05.317Z,0.50
2023-10-25T02:22:07.705Z,0.43
2023-10-25T02:23:10.049Z,0.50
2023-10-25T02:24:13.456Z,0.43
2023-10-25T02:25:15.928Z,0.57
2023-10-25T02:26:18.607Z,0.50
2023-10-25T02:27:21.074Z,0.43
2023-10-25T02:28:23.476Z,0.40
2023-10-25T02:29:26.129Z,0.37
2023-10-25T02:30:28.513Z,0.50
2023-10-25T02:31:30.882Z,0.60
2023-10-25T02:32:33.659Z,0.60
2023-10-25T02:33:35.973Z,0.60
2023-10-25T02:34:38.677Z,0.50
2023-10-25T02:35:40.993Z,0.40
2023-10-25T02:36:43.668Z,0.60
2023-10-25T02:37:46.144Z,0.43
2023-10-25T02:38:49.648Z,0.60
2023-10-25T02:39:51.986Z,0.50
2023-10-25T02:40:54.828Z,0.50
2023-10-25T02:41:57.289Z,0.30
2023-10-25T02:42:59.775Z,0.67
2023-10-25T02:44:02.374Z,0.33
2023-10-25T02:45:05.374Z,0.40
2023-10-25T02:46:10.964Z,0.50
2023-10-25T02:47:13.938Z,0.50
2023-10-25T02:48:16.397Z,0.40
2023-10-25T02:49:18.947Z,0.50
2023-10-25T02:50:21.398Z,0.40
2023-10-25T02:51:23.723Z,0.50
2023-10-25T02:52:26.672Z,0.50
2023-10-25T02:53:29.025Z,0.40
2023-10-25T02:54:31.783Z,0.40
2023-10-25T02:55:35.140Z,0.33
2023-10-25T02:56:37.895Z,0.43
2023-10-25T02:57:40.282Z,0.40
2023-10-25T02:58:42.634Z,0.43
2023-10-25T02:59:45.145Z,0.23
2023-10-25T03:00:47.548Z,0.40
2023-10-25T03:01:50.059Z,0.57
2023-10-25T03:02:52.524Z,0.40
2023-10-25T03:03:55.494Z,0.60
2023-10-25T03:04:59.883Z,0.50
2023-10-25T03:06:02.289Z,0.50
2023-10-25T03:07:05.100Z,0.53
2023-10-25T03:08:07.773Z,0.40
2023-10-25T03:09:11.273Z,0.40
2023-10-25T03:10:13.727Z,0.50
2023-10-25T03:11:16.130Z,0.40
2023-10-25T03:12:18.751Z,0.50
2023-10-25T03:13:21.256Z,0.50
2023-10-25T03:14:24.124Z,0.60
2023-10-25T03:15:26.608Z,0.37
2023-10-25T03:16:29.045Z,0.60
2023-10-25T03:17:31.697Z,0.50
2023-10-25T03:18:34.963Z,0.30
2023-10-25T03:19:37.771Z,0.47
2023-10-25T03:20:40.173Z,0.40
2023-10-25T03:21:42.582Z,0.50
2023-10-25T03:22:44.890Z,0.33
2023-10-25T03:23:47.243Z,0.57
2023-10-25T03:24:49.610Z,0.40
2023-10-25T03:25:52.309Z,0.47
2023-10-25T03:26:55.667Z,0.50
2023-10-25T03:27:58.145Z,0.60
2023-10-25T03:29:00.553Z,0.40
2023-10-25T03:30:04.068Z,0.50
2023-10-25T03:31:07.454Z,0.50
2023-10-25T03:32:09.811Z,0.40
2023-10-25T03:33:12.155Z,0.50
2023-10-25T03:34:16.251Z,0.50
2023-10-25T03:35:18.964Z,0.33
2023-10-25T03:36:21.345Z,0.47
2023-10-25T03:37:23.702Z,0.60
2023-10-25T03:38:26.184Z,0.50
2023-10-25T03:39:28.834Z,0.50
2023-10-25T03:40:31.320Z,0.50
2023-10-25T03:41:33.711Z,0.43
2023-10-25T03:42:36.722Z,0.50
2023-10-25T03:43:39.321Z,0.37
2023-10-25T03:44:41.654Z,0.30
2023-10-25T03:45:44.116Z,0.50
2023-10-25T03:46:46.928Z,0.40
2023-10-25T03:47:49.631Z,0.50
2023-10-25T03:48:52.350Z,0.57
2023-10-25T03:49:54.824Z,0.57
2023-10-25T03:50:57.161Z,0.70
2023-10-25T03:51:59.597Z,0.40
2023-10-25T03:53:01.978Z,0.50
2023-10-25T03:54:04.545Z,0.40
2023-10-25T03:55:08.573Z,0.40
2023-10-25T03:56:11.048Z,0.40
2023-10-25T03:57:13.636Z,0.40
2023-10-25T03:58:16.248Z,0.50
2023-10-25T03:59:18.539Z,0.40
2023-10-25T04:00:21.126Z,0.50
2023-10-25T04:01:23.696Z,0.50
2023-10-25T04:02:26.439Z,0.33
2023-10-25T04:03:29.542Z,0.40
2023-10-25T04:04:31.957Z,0.30
2023-10-25T04:05:34.354Z,0.43
2023-10-25T04:06:37.186Z,0.30
2023-10-25T04:07:40.291Z,0.40
2023-10-25T04:08:42.565Z,0.40
2023-10-25T04:09:45.332Z,0.50
2023-10-25T04:10:55.927Z,0.40
2023-10-25T04:11:58.203Z,0.50
2023-10-25T04:13:00.488Z,0.50
2023-10-25T04:14:03.150Z,0.50
2023-10-25T04:15:06.018Z,0.50
2023-10-25T04:16:10.696Z,0.40
2023-10-25T04:17:13.837Z,0.40
2023-10-25T04:18:16.483Z,0.50
2023-10-25T04:19:19.046Z,0.40
2023-10-25T04:20:21.829Z,0.50
2023-10-25T04:21:24.170Z,0.60
2023-10-25T04:22:27.106Z,0.30
2023-10-25T04:23:32.878Z,0.30
2023-10-25T04:24:35.619Z,0.30
2023-10-25T04:25:37.899Z,0.50
2023-10-25T04:26:40.548Z,0.30
2023-10-25T04:27:42.976Z,0.53
2023-10-25T04:28:46.091Z,0.30
2023-10-25T04:29:48.436Z,0.53
2023-10-25T04:30:51.278Z,0.30
2023-10-25T04:31:53.658Z,0.50
2023-10-25T04:32:56.151Z,0.40
2023-10-25T04:34:00.756Z,0.30
2023-10-25T04:35:03.133Z,0.40
2023-10-25T04:36:07.068Z,0.37
2023-10-25T04:37:09.694Z,0.27
2023-10-25T04:38:12.138Z,0.30
2023-10-25T04:39:14.437Z,0.40
2023-10-25T04:40:16.959Z,0.33
2023-10-25T04:41:19.414Z,0.30
2023-10-25T04:42:22.142Z,0.30
2023-10-25T04:43:24.865Z,0.50
2023-10-25T04:44:28.839Z,0.40
2023-10-25T04:45:31.262Z,0.33
2023-10-25T04:46:33.766Z,0.30
2023-10-25T04:47:36.188Z,0.40
2023-10-25T04:48:38.597Z,0.30
2023-10-25T04:49:41.059Z,0.40
2023-10-25T04:50:45.146Z,0.30
2023-10-25T04:51:47.532Z,0.60
2023-10-25T04:52:50.751Z,0.60
2023-10-25T04:53:53.311Z,0.30
2023-10-25T04:54:55.988Z,0.40
2023-10-25T04:55:58.310Z,0.40
2023-10-25T04:57:00.649Z,0.30
2023-10-25T04:58:03.664Z,0.40
2023-10-25T04:59:06.563Z,0.40
2023-10-25T05:00:13.265Z,0.40
2023-10-25T05:01:16.476Z,0.50
2023-10-25T05:02:19.157Z,0.30
2023-10-25T05:03:22.706Z,0.20
2023-10-25T05:04:25.408Z,0.30
2023-10-25T05:05:27.805Z,0.30
2023-10-25T05:06:30.752Z,0.30
2023-10-25T05:07:33.575Z,0.30
2023-10-25T05:08:36.909Z,0.30
2023-10-25T05:09:39.777Z,0.30
2023-10-25T05:10:42.704Z,0.37
2023-10-25T05:11:56.250Z,0.40
2023-10-25T05:12:58.914Z,0.40
2023-10-25T05:14:01.734Z,0.30
2023-10-25T05:15:04.410Z,0.33
2023-10-25T05:16:07.304Z,0.50
2023-10-25T05:17:11.092Z,0.30
2023-10-25T05:18:13.789Z,0.40
2023-10-25T05:19:16.513Z,0.30
2023-10-25T05:20:19.486Z,0.50
2023-10-25T05:21:27.414Z,0.37
2023-10-25T05:22:30.989Z,0.40
2023-10-25T05:23:35.629Z,0.30
2023-10-25T05:24:38.329Z,0.30
2023-10-25T05:25:41.221Z,0.33
2023-10-25T05:26:44.260Z,0.57
2023-10-25T05:27:47.314Z,0.30
2023-10-25T05:28:49.834Z,0.30
2023-10-25T05:29:52.650Z,0.40
2023-10-25T05:30:58.556Z,0.47
2023-10-25T05:32:05.682Z,0.33
2023-10-25T05:33:09.879Z,0.37
2023-10-25T05:34:12.672Z,0.33
2023-10-25T05:35:15.895Z,0.30
2023-10-25T05:36:18.387Z,0.40
2023-10-25T05:37:21.155Z,0.30
2023-10-25T05:38:23.946Z,0.30
2023-10-25T05:39:26.645Z,0.30
2023-10-25T05:40:29.519Z,0.30
2023-10-25T05:41:36.794Z,0.30
2023-10-25T05:42:50.745Z,0.33
2023-10-25T05:44:06.999Z,0.33
2023-10-25T05:45:11.256Z,0.30
2023-10-25T05:46:13.921Z,0.30
2023-10-25T05:47:16.740Z,0.40
2023-10-25T05:48:19.478Z,0.40
2023-10-25T05:49:22.116Z,0.40
2023-10-25T05:50:25.013Z,0.37
2023-10-25T05:51:28.583Z,0.30
2023-10-25T05:52:31.213Z,0.50
2023-10-25T05:53:34.102Z,0.30
2023-10-25T05:54:37.989Z,0.40
2023-10-25T05:55:40.720Z,0.30
2023-10-25T05:56:43.397Z,0.40
2023-10-25T05:57:49.107Z,0.40
2023-10-25T05:58:51.690Z,0.30
2023-10-25T05:59:54.351Z,0.20
2023-10-25T06:00:57.467Z,0.30
2023-10-25T06:02:23.887Z,0.30
2023-10-25T06:03:32.119Z,0.43
2023-10-25T06:04:37.541Z,0.40
2023-10-25T06:05:40.979Z,0.30
2023-10-25T06:06:45.820Z,0.33
2023-10-25T06:07:48.488Z,0.30
2023-10-25T06:08:51.188Z,0.30
2023-10-25T06:09:54.202Z,0.37
2023-10-25T06:10:56.944Z,0.30
2023-10-25T06:11:59.896Z,0.40
2023-10-25T06:13:03.052Z,0.40
2023-10-25T06:14:06.721Z,0.30
2023-10-25T06:15:10.589Z,0.40
2023-10-25T06:16:14.633Z,0.20
2023-10-25T06:17:17.360Z,0.23
2023-10-25T06:18:20.056Z,0.40
2023-10-25T06:19:22.855Z,0.40
2023-10-25T06:20:25.189Z,0.30
2023-10-25T06:21:27.900Z,0.30
2023-10-25T06:22:30.312Z,0.40
2023-10-25T06:23:35.292Z,0.40
2023-10-25T06:24:37.615Z,0.30
2023-10-25T06:25:39.978Z,0.40
2023-10-25T06:26:43.187Z,0.50
2023-10-25T06:27:45.567Z,0.33
2023-10-25T06:28:47.867Z,0.30
2023-10-25T06:29:50.565Z,0.40
2023-10-25T06:30:53.207Z,0.40
2023-10-25T06:31:55.471Z,0.30
2023-10-25T06:33:00.711Z,0.50
2023-10-25T06:34:03.411Z,0.40
2023-10-25T06:35:06.568Z,0.30
2023-10-25T06:36:10.206Z,0.40
2023-10-25T06:37:13.136Z,0.40
2023-10-25T06:38:16.035Z,0.37
2023-10-25T06:39:18.856Z,0.30
2023-10-25T06:40:21.896Z,0.50
2023-10-25T06:41:25.122Z,0.33
2023-10-25T06:42:27.611Z,0.33
2023-10-25T06:43:31.291Z,0.40
2023-10-25T06:44:34.494Z,0.33
2023-10-25T06:45:37.152Z,0.50
2023-10-25T06:46:39.791Z,0.37
2023-10-25T06:47:45.587Z,0.40
2023-10-25T06:48:48.491Z,0.40
2023-10-25T06:49:52.297Z,0.30
2023-10-25T06:50:57.314Z,0.40
2023-10-25T06:51:59.914Z,0.30
2023-10-25T06:53:02.822Z,0.33
2023-10-25T06:54:05.590Z,0.30
2023-10-25T06:55:09.181Z,0.40
2023-10-25T06:56:12.181Z,0.30
2023-10-25T06:57:14.974Z,0.30
2023-10-25T06:58:18.159Z,0.23
2023-10-25T06:59:21.041Z,0.20
2023-10-25T07:00:23.938Z,0.70
2023-10-25T07:01:31.841Z,0.40
2023-10-25T07:02:39.361Z,0.40
2023-10-25T07:03:49.378Z,0.40
2023-10-25T07:05:06.160Z,0.50
2023-10-25T07:06:09.599Z,0.40
2023-10-25T07:07:12.786Z,0.27
2023-10-25T07:08:15.565Z,0.30
2023-10-25T07:09:18.436Z,0.33
2023-10-25T07:10:21.711Z,0.33
2023-10-25T07:11:25.326Z,0.40
2023-10-25T07:12:27.825Z,0.27
2023-10-25T07:13:31.313Z,0.23
2023-10-25T07:14:33.542Z,0.30
2023-10-25T07:15:37.388Z,0.33
2023-10-25T07:16:41.270Z,0.47
2023-10-25T07:17:46.338Z,0.43
2023-10-25T07:18:49.182Z,0.60
2023-10-25T07:19:51.950Z,0.30
2023-10-25T07:20:54.747Z,0.50
2023-10-25T07:21:57.111Z,0.47
2023-10-25T07:22:59.498Z,0.30
2023-10-25T07:24:01.954Z,0.40
2023-10-25T07:25:05.033Z,0.30
2023-10-25T07:26:08.377Z,0.40
2023-10-25T07:27:11.011Z,0.33
2023-10-25T07:28:17.724Z,0.60
2023-10-25T07:29:20.062Z,0.40
2023-10-25T07:30:22.687Z,0.60
2023-10-25T07:31:25.040Z,0.30
2023-10-25T07:32:27.886Z,0.40
2023-10-25T07:33:31.297Z,0.40
2023-10-25T07:34:33.966Z,0.43
2023-10-25T07:35:36.658Z,0.40
2023-10-25T07:36:39.048Z,0.30
2023-10-25T07:37:42.215Z,0.40
2023-10-25T07:38:44.571Z,0.50
2023-10-25T07:39:47.145Z,0.40
2023-10-25T07:40:50.864Z,0.40
2023-10-25T07:41:53.470Z,0.50
2023-10-25T07:42:55.836Z,0.50
2023-10-25T07:43:58.809Z,0.30
2023-10-25T07:45:01.138Z,0.30
2023-10-25T07:46:03.776Z,0.40
2023-10-25T07:47:06.485Z,0.40
2023-10-25T07:48:09.056Z,0.40
2023-10-25T07:49:11.713Z,0.40
2023-10-25T07:50:19.323Z,0.50
2023-10-25T07:51:21.713Z,0.40
2023-10-25T07:52:24.691Z,0.50
2023-10-25T07:53:27.352Z,0.30
2023-10-25T07:54:30.033Z,0.40
2023-10-25T07:57:09.451Z,0.37
2023-10-25T07:59:05.696Z,0.50
2023-10-25T08:00:10.973Z,0.40
2023-10-25T08:01:16.984Z,0.60
2023-10-25T08:02:19.660Z,0.40
2023-10-25T08:03:22.178Z,0.50
2023-10-25T08:04:24.856Z,0.40
2023-10-25T08:05:27.535Z,0.30
2023-10-25T08:06:30.184Z,0.33
2023-10-25T08:07:32.588Z,0.37
2023-10-25T08:08:35.043Z,0.50
2023-10-25T08:09:38.270Z,0.40
2023-10-25T08:10:40.622Z,0.40
2023-10-25T08:11:43.075Z,0.50
2023-10-25T08:12:45.516Z,0.60
2023-10-25T08:13:47.777Z,0.40
2023-10-25T08:14:51.464Z,0.40
2023-10-25T08:16:03.888Z,0.47
2023-10-25T08:17:06.665Z,0.50
2023-10-25T08:18:09.500Z,0.40
2023-10-25T08:19:11.916Z,0.60
2023-10-25T08:20:14.442Z,0.50
2023-10-25T08:21:17.673Z,0.40
2023-10-25T08:22:20.253Z,0.40
2023-10-25T08:23:22.724Z,0.60
2023-10-25T08:24:25.165Z,0.40
2023-10-25T08:25:27.732Z,0.50
2023-10-25T08:26:30.231Z,0.50
2023-10-25T08:27:32.862Z,0.53
2023-10-25T08:28:35.297Z,0.60
2023-10-25T08:29:37.657Z,0.37
2023-10-25T08:30:40.062Z,0.37
2023-10-25T08:31:43.350Z,0.73
2023-10-25T08:32:48.222Z,0.57
2023-10-25T08:33:50.697Z,0.50
2023-10-25T08:34:53.056Z,0.40
2023-10-25T08:36:05.565Z,0.40
2023-10-25T08:37:07.888Z,0.33
2023-10-25T08:38:10.579Z,0.60
2023-10-25T08:39:13.113Z,0.40
2023-10-25T08:40:16.174Z,0.60
2023-10-25T08:41:21.705Z,0.47
2023-10-25T08:42:24.325Z,0.37
2023-10-25T08:43:26.725Z,0.40
2023-10-25T08:44:29.299Z,0.60
2023-10-25T08:45:36.203Z,0.60
2023-10-25T08:46:40.609Z,0.60
2023-10-25T08:47:43.615Z,0.40
2023-10-25T08:48:46.588Z,0.60
2023-10-25T08:49:50.813Z,0.60
2023-10-25T08:50:53.505Z,0.80
2023-10-25T08:51:56.659Z,0.40
2023-10-25T08:53:01.794Z,0.50
2023-10-25T08:54:05.009Z,0.40
2023-10-25T08:55:11.171Z,0.20
2023-10-25T08:56:13.866Z,0.30
2023-10-25T08:57:19.565Z,0.40
2023-10-25T08:58:22.856Z,0.40
2023-10-25T08:59:25.341Z,0.30
2023-10-25T09:00:43.713Z,0.50
2023-10-25T09:01:52.440Z,0.40
2023-10-25T09:02:58.374Z,0.40
2023-10-25T09:04:10.362Z,0.43
2023-10-25T09:05:12.759Z,0.50
2023-10-25T09:06:25.192Z,0.50
2023-10-25T09:07:32.592Z,0.53
2023-10-25T09:08:36.138Z,0.40
2023-10-25T09:09:41.994Z,0.50
2023-10-25T09:10:44.439Z,0.57
2023-10-25T09:11:47.629Z,0.60
2023-10-25T09:12:52.185Z,0.70
2023-10-25T09:13:59.040Z,1.00
2023-10-25T09:15:01.333Z,1.43
2023-10-25T09:16:09.099Z,0.73
2023-10-25T09:17:11.509Z,1.10
2023-10-25T09:18:14.092Z,1.00
2023-10-25T09:19:22.272Z,1.20
2023-10-25T09:20:28.801Z,1.23
2023-10-25T09:21:31.622Z,1.67
2023-10-25T09:22:34.056Z,1.33
2023-10-25T09:23:36.510Z,1.50
2023-10-25T09:24:53.037Z,1.50
2023-10-25T09:25:56.484Z,1.60
2023-10-25T09:27:07.561Z,1.50
2023-10-25T09:28:17.246Z,1.50
2023-10-25T09:29:29.105Z,2.15
2023-10-25T09:30:34.493Z,2.00
2023-10-25T09:31:38.698Z,2.10
2023-10-25T09:32:42.330Z,2.43
2023-10-25T09:33:44.993Z,2.17
2023-10-25T09:34:47.987Z,2.17
2023-10-25T09:35:52.148Z,2.20
2023-10-25T09:36:54.680Z,1.90
2023-10-25T09:37:57.025Z,1.80
2023-10-25T09:38:59.652Z,1.90
2023-10-25T09:40:02.034Z,2.17
2023-10-25T09:41:05.927Z,2.50
2023-10-25T09:42:14.507Z,2.40
2023-10-25T09:43:21.293Z,2.50
2023-10-25T09:44:29.828Z,2.30
2023-10-25T09:45:33.302Z,2.43
2023-10-25T09:46:36.031Z,2.37
2023-10-25T09:47:45.516Z,2.30
2023-10-25T09:49:08.507Z,2.27
2023-10-25T09:50:27.359Z,2.30
2023-10-25T09:52:00.596Z,2.73
2023-10-25T09:53:32.362Z,2.47
2023-10-25T09:54:35.508Z,2.50
2023-10-25T09:55:45.480Z,3.00
2023-10-25T09:56:50.758Z,2.90
2023-10-25T09:57:55.270Z,3.10
2023-10-25T09:58:59.170Z,2.80
2023-10-25T10:00:03.085Z,2.90
2023-10-25T10:01:07.117Z,3.20
2023-10-25T10:02:13.987Z,2.90
2023-10-25T10:03:33.492Z,3.00
2023-10-25T10:04:51.246Z,2.70
2023-10-25T10:06:06.979Z,3.17
2023-10-25T10:07:32.801Z,3.00
2023-10-25T10:08:55.213Z,3.10
2023-10-25T10:10:13.902Z,2.90
2023-10-25T10:11:26.308Z,2.90
2023-10-25T10:12:28.924Z,3.10
2023-10-25T10:13:31.296Z,3.20
2023-10-25T10:14:38.241Z,2.93
2023-10-25T10:16:03.409Z,3.03
2023-10-25T10:17:10.219Z,3.23
2023-10-25T10:18:13.016Z,3.40
2023-10-25T10:19:15.752Z,3.53
2023-10-25T10:20:30.951Z,3.30
2023-10-25T10:21:53.381Z,3.57
2023-10-25T10:23:07.151Z,3.23
2023-10-25T10:24:48.932Z,3.57
2023-10-25T10:25:53.658Z,3.30
2023-10-25T10:26:55.968Z,3.60
2023-10-25T10:28:05.223Z,3.53
2023-10-25T10:29:33.373Z,3.47
2023-10-25T10:30:38.520Z,3.30
2023-10-25T10:31:58.248Z,3.17
2023-10-25T10:33:03.419Z,3.37
2023-10-25T10:34:06.587Z,3.40
2023-10-25T10:35:25.945Z,3.60
2023-10-25T10:36:31.780Z,3.37
2023-10-25T10:37:34.429Z,3.47
2023-10-25T10:39:15.105Z,3.27
2023-10-25T10:40:17.816Z,3.00
2023-10-25T10:41:29.827Z,3.37
2023-10-25T10:42:32.581Z,3.17
2023-10-25T10:43:35.368Z,3.53
2023-10-25T10:44:39.447Z,3.40
2023-10-25T10:45:49.778Z,3.30
2023-10-25T10:47:02.243Z,3.00
2023-10-25T10:48:21.280Z,3.30
2023-10-25T10:49:28.910Z,3.10
2023-10-25T10:50:31.446Z,3.00
2023-10-25T10:51:33.776Z,3.13
2023-10-25T10:52:36.124Z,3.50
2023-10-25T10:53:39.888Z,3.10
2023-10-25T10:54:42.480Z,2.97
2023-10-25T10:55:47.256Z,2.70
2023-10-25T10:56:50.000Z,2.63
2023-10-25T10:58:06.819Z,2.73
2023-10-25T10:59:11.305Z,2.50
2023-10-25T11:00:17.771Z,2.80
2023-10-25T11:01:20.564Z,2.77
2023-10-25T11:02:23.159Z,2.70
2023-10-25T11:03:29.252Z,2.27
2023-10-25T11:04:31.728Z,2.60
2023-10-25T11:05:34.111Z,2.40
2023-10-25T11:06:36.908Z,2.30
2023-10-25T11:07:39.471Z,2.60
2023-10-25T11:08:43.303Z,2.47
2023-10-25T11:09:46.525Z,2.70
2023-10-25T11:10:49.255Z,1.90
2023-10-25T11:11:52.240Z,2.23
2023-10-25T11:12:59.792Z,2.60
2023-10-25T11:14:02.582Z,2.50
2023-10-25T11:15:08.386Z,2.27
2023-10-25T11:16:11.486Z,2.13
2023-10-25T11:17:14.427Z,2.40
2023-10-25T11:18:17.104Z,2.20
2023-10-25T11:19:19.662Z,2.33
2023-10-25T11:20:22.052Z,2.43
2023-10-25T11:21:24.700Z,2.53
2023-10-25T11:22:27.394Z,2.27
2023-10-25T11:23:30.227Z,1.93
2023-10-25T11:24:36.808Z,2.17
2023-10-25T11:25:39.576Z,1.67
2023-10-25T11:26:43.242Z,1.90
2023-10-25T11:27:46.147Z,1.87
2023-10-25T11:28:48.499Z,1.57
2023-10-25T11:29:51.859Z,1.52
2023-10-25T11:31:01.580Z,1.70
2023-10-25T11:32:07.354Z,1.17
2023-10-25T11:33:11.001Z,1.63
2023-10-25T11:34:13.490Z,1.40
2023-10-25T11:35:43.127Z,1.50
2023-10-25T11:36:45.592Z,1.20
2023-10-25T11:37:48.081Z,1.23
2023-10-25T11:38:50.711Z,1.97
2023-10-25T11:40:03.502Z,1.30
2023-10-25T11:41:05.967Z,1.10
2023-10-25T11:42:08.303Z,1.33
2023-10-25T11:43:11.786Z,1.00
2023-10-25T11:44:14.465Z,1.67
2023-10-25T11:45:19.178Z,1.20
2023-10-25T11:46:21.946Z,1.00
2023-10-25T11:47:24.739Z,0.80
2023-10-25T11:48:27.183Z,1.10
2023-10-25T11:49:29.634Z,0.80
2023-10-25T11:50:32.392Z,1.10
2023-10-25T11:51:36.350Z,0.90
2023-10-25T11:52:38.780Z,0.75
2023-10-25T11:53:41.463Z,0.83
2023-10-25T11:54:43.870Z,0.77
2023-10-25T11:55:46.386Z,0.90
2023-10-25T11:56:49.700Z,0.85
2023-10-25T11:57:52.171Z,0.77
2023-10-25T11:58:54.773Z,0.80
2023-10-25T11:59:57.729Z,0.90
2023-10-25T12:01:09.244Z,0.80
2023-10-25T12:02:13.276Z,0.70
2023-10-25T12:03:16.006Z,1.00
2023-10-25T12:04:18.679Z,0.70
2023-10-25T12:05:21.466Z,0.80
2023-10-25T12:06:25.326Z,0.70
2023-10-25T12:07:28.572Z,1.20
2023-10-25T12:08:31.146Z,0.70
2023-10-25T12:09:33.867Z,0.60
2023-10-25T12:10:36.149Z,0.80
2023-10-25T12:11:40.583Z,0.70
2023-10-25T12:12:45.119Z,0.80
2023-10-25T12:13:47.702Z,0.77
2023-10-25T12:14:51.378Z,0.60
2023-10-25T12:15:53.909Z,0.57
2023-10-25T12:16:56.355Z,0.70
2023-10-25T12:17:58.753Z,0.57
2023-10-25T12:19:01.171Z,0.90
2023-10-25T12:20:18.292Z,0.40
2023-10-25T12:21:25.537Z,0.40
2023-10-25T12:22:28.177Z,0.70
2023-10-25T12:23:30.965Z,0.67
2023-10-25T12:24:34.224Z,0.60
2023-10-25T12:25:38.925Z,0.73
2023-10-25T12:26:41.952Z,0.60
2023-10-25T12:27:46.143Z,0.60
2023-10-25T12:28:48.736Z,0.80
2023-10-25T12:29:51.470Z,0.63
2023-10-25T12:30:55.675Z,0.50
2023-10-25T12:31:59.209Z,0.88
2023-10-25T12:33:01.824Z,0.45
2023-10-25T12:34:04.349Z,0.57
2023-10-25T12:35:07.516Z,0.80
2023-10-25T12:36:09.899Z,0.80
2023-10-25T12:37:12.590Z,0.55
2023-10-25T12:38:14.955Z,0.73
2023-10-25T12:39:18.599Z,0.73
2023-10-25T12:40:21.391Z,0.60
2023-10-25T12:41:24.129Z,0.77
2023-10-25T12:42:26.448Z,0.70
2023-10-25T12:43:29.121Z,0.50
2023-10-25T12:44:31.556Z,0.68
2023-10-25T12:45:34.115Z,0.70
2023-10-25T12:46:38.468Z,0.50
2023-10-25T12:47:41.092Z,0.57
2023-10-25T12:48:43.925Z,0.60
2023-10-25T12:49:47.183Z,0.60
2023-10-25T12:50:49.481Z,0.50
2023-10-25T12:51:51.763Z,0.70
2023-10-25T12:52:54.192Z,0.60
2023-10-25T12:53:56.724Z,0.60
2023-10-25T12:54:59.155Z,0.80
2023-10-25T12:56:01.600Z,0.75
2023-10-25T12:57:04.109Z,0.60
2023-10-25T12:58:07.504Z,0.60
2023-10-25T12:59:10.039Z,0.60
2023-10-25T13:00:13.488Z,0.80
2023-10-25T13:01:15.917Z,0.70
2023-10-25T13:02:19.222Z,0.33
2023-10-25T13:03:22.322Z,0.40
2023-10-25T13:04:25.194Z,0.70
2023-10-25T13:05:27.681Z,0.60
2023-10-25T13:06:32.796Z,0.47
2023-10-25T13:07:35.672Z,0.60
2023-10-25T13:08:38.379Z,0.52
2023-10-25T13:09:41.137Z,0.70
2023-10-25T13:10:43.770Z,0.60
2023-10-25T13:11:46.298Z,0.50
2023-10-25T13:12:49.035Z,0.40
2023-10-25T13:13:51.544Z,0.60
2023-10-25T13:14:54.286Z,0.50
2023-10-25T13:15:56.974Z,0.50
2023-10-25T13:17:08.721Z,0.60
2023-10-25T13:18:19.615Z,0.60
2023-10-25T13:19:21.974Z,0.27
2023-10-25T13:20:24.757Z,0.43
2023-10-25T13:21:27.498Z,0.55
2023-10-25T13:22:30.805Z,0.60
2023-10-25T13:23:33.206Z,0.70
2023-10-25T13:24:35.529Z,0.70
2023-10-25T13:25:38.185Z,0.50
2023-10-25T13:26:40.743Z,0.50
2023-10-25T13:27:43.322Z,0.60
2023-10-25T13:28:45.705Z,0.50
2023-10-25T13:29:49.494Z,0.40
2023-10-25T13:30:51.822Z,0.55
2023-10-25T13:31:54.184Z,0.30
2023-10-25T13:32:56.773Z,0.40
2023-10-25T13:33:59.084Z,0.70
2023-10-25T13:35:01.582Z,0.57
2023-10-25T13:36:04.521Z,0.43
2023-10-25T13:37:07.669Z,0.50
2023-10-25T13:38:10.285Z,0.47
2023-10-25T13:39:12.879Z,0.60
2023-10-25T13:40:15.291Z,0.60
2023-10-25T13:41:20.904Z,0.50
2023-10-25T13:42:24.178Z,0.60
2023-10-25T13:43:26.562Z,0.60
2023-10-25T13:44:29.374Z,0.70
2023-10-25T13:45:32.044Z,0.50
2023-10-25T13:46:34.509Z,0.70
2023-10-25T13:47:37.156Z,0.60
2023-10-25T13:48:41.016Z,0.50
2023-10-25T13:49:43.823Z,0.60
2023-10-25T13:50:46.297Z,0.50
2023-10-25T13:51:48.621Z,0.40
2023-10-25T13:52:51.070Z,0.50
2023-10-25T13:53:53.531Z,0.70
2023-10-25T13:54:56.130Z,0.60
2023-10-25T13:55:58.520Z,0.80
2023-10-25T13:57:01.234Z,0.57
2023-10-25T13:58:03.772Z,0.60
2023-10-25T13:59:06.135Z,0.65
2023-10-25T14:00:11.721Z,0.60
2023-10-25T14:01:14.407Z,0.50
2023-10-25T14:02:17.070Z,0.90
2023-10-25T14:03:22.376Z,0.65
2023-10-25T14:04:24.800Z,0.70
2023-10-25T14:05:27.371Z,0.70
2023-10-25T14:06:30.132Z,0.60
2023-10-25T14:07:32.452Z,0.68
2023-10-25T14:08:34.854Z,0.63
2023-10-25T14:09:38.682Z,0.60
2023-10-25T14:10:45.267Z,0.50
2023-10-25T14:11:48.029Z,0.73
2023-10-25T14:12:50.602Z,0.77
2023-10-25T14:13:53.228Z,0.80
2023-10-25T14:14:55.735Z,0.50